Time;durP1;ratioP1;P1;durP2;ratioP2;P2;SDS_P1;SDS_P2;PMS_P1;PMS_P2;Temp;Humidity;BMP_temperature;BMP_pressure;BME280_temperature;BME280_humidity;BME280_pressure;Samples;Min_cycle;Max_cycle;Signal;HPM_P1;HPM_P2
2022/01/09 00:01:46;;;;;;;5.77;2.37;;;24.10;99.90;;;;;;4994926;28;20186;-69
2022/01/09 00:04:14;;;;;;;7.77;2.57;;;24.00;99.90;;;;;;4994479;28;20190;-70
2022/01/09 00:06:41;;;;;;;8.27;2.20;;;24.00;99.90;;;;;;4994673;28;20182;-70
2022/01/09 00:09:08;;;;;;;9.90;2.23;;;24.10;99.90;;;;;;4994167;28;20189;-70
2022/01/09 00:11:36;;;;;;;10.23;2.50;;;24.10;99.90;;;;;;4994406;28;20639;-70
2022/01/09 00:14:03;;;;;;;6.90;2.20;;;24.10;99.90;;;;;;4994259;28;20221;-71
2022/01/09 00:16:30;;;;;;;12.50;2.97;;;24.10;99.90;;;;;;4994910;28;20500;-70
2022/01/09 00:18:58;;;;;;;7.13;2.00;;;24.10;99.90;;;;;;4994466;28;20206;-70
2022/01/09 00:21:25;;;;;;;12.50;2.80;;;24.20;99.90;;;;;;4994803;28;20185;-71
2022/01/09 00:23:52;;;;;;;9.40;2.40;;;24.20;99.90;;;;;;4999428;28;20186;-69
2022/01/09 00:26:20;;;;;;;5.40;2.30;;;24.30;99.90;;;;;;4992557;28;20198;-68
2022/01/09 00:28:47;;;;;;;10.33;2.20;;;24.40;99.90;;;;;;4993937;28;20186;-70
2022/01/09 00:31:14;;;;;;;8.57;2.37;;;24.40;99.90;;;;;;4994400;28;20177;-71
2022/01/09 00:33:42;;;;;;;8.97;2.57;;;24.50;99.90;;;;;;4994141;28;20297;-71
2022/01/09 00:36:09;;;;;;;10.33;2.30;;;24.60;99.90;;;;;;4994051;28;20293;-69
2022/01/09 00:38:36;;;;;;;12.10;2.93;;;24.60;99.90;;;;;;4994483;28;20650;-69
2022/01/09 00:41:04;;;;;;;9.37;2.27;;;24.50;99.90;;;;;;4993885;28;20258;-71
2022/01/09 00:43:31;;;;;;;6.47;2.10;;;24.50;99.90;;;;;;4994153;28;20174;-69
2022/01/09 00:45:59;;;;;;;10.73;2.40;;;24.50;99.90;;;;;;4994261;28;20214;-71
2022/01/09 00:48:26;;;;;;;4.57;2.10;;;24.50;99.90;;;;;;4993644;28;20183;-71
2022/01/09 00:50:53;;;;;;;10.73;2.60;;;24.60;99.90;;;;;;4994530;28;20178;-70
2022/01/09 00:53:20;;;;;;;11.57;2.90;;;24.70;99.90;;;;;;4993925;28;20297;-70
2022/01/09 00:55:48;;;;;;;7.57;2.73;;;24.70;99.90;;;;;;4993859;28;20198;-70
2022/01/09 00:58:15;;;;;;;8.60;3.17;;;24.60;99.90;;;;;;4993303;28;20691;-71
2022/01/09 01:00:42;;;;;;;8.23;2.40;;;24.50;99.90;;;;;;4993530;28;20183;-71
2022/01/09 01:03:10;;;;;;;10.40;2.70;;;24.50;99.90;;;;;;4994265;28;20587;-70
2022/01/09 01:05:37;;;;;;;9.67;2.17;;;24.60;99.90;;;;;;4994087;28;20175;-70
2022/01/09 01:08:05;;;;;;;9.43;2.20;;;24.60;99.90;;;;;;4993856;28;20178;-71
2022/01/09 01:10:32;;;;;;;12.13;2.80;;;24.40;99.90;;;;;;4993794;28;20312;-71
2022/01/09 01:12:59;;;;;;;10.43;2.60;;;24.40;99.90;;;;;;4985499;28;20187;-70
2022/01/09 01:15:27;;;;;;;4.90;2.00;;;24.50;99.90;;;;;;4993400;28;20187;-68
2022/01/09 01:17:54;;;;;;;10.70;2.50;;;24.50;99.90;;;;;;4993604;28;20711;-71
2022/01/09 01:20:23;;;;;;;8.77;2.40;;;24.50;99.90;;;;;;4993268;28;20273;-70
2022/01/09 01:22:52;;;;;;;9.17;2.50;;;24.60;99.90;;;;;;4993123;28;20182;-70
2022/01/09 01:25:20;;;;;;;8.50;2.10;;;24.50;99.90;;;;;;4999039;28;20197;-69
2022/01/09 01:27:48;;;;;;;9.23;2.43;;;24.50;99.90;;;;;;4976304;28;20217;-71
2022/01/09 01:30:16;;;;;;;8.37;2.57;;;24.50;99.90;;;;;;4993595;28;20186;-67
2022/01/09 01:32:43;;;;;;;9.37;2.93;;;24.40;99.90;;;;;;4993903;28;20261;-70
2022/01/09 01:35:12;;;;;;;9.93;2.67;;;24.40;99.90;;;;;;4993403;28;20289;-71
2022/01/09 01:37:42;;;;;;;6.83;2.00;;;24.40;99.90;;;;;;4993701;28;20231;-67
2022/01/09 01:40:13;;;;;;;8.20;2.10;;;24.40;99.90;;;;;;4976771;28;20182;-70
2022/01/09 01:42:42;;;;;;;9.57;2.13;;;24.40;99.90;;;;;;4976355;28;20236;-70
2022/01/09 01:45:10;;;;;;;6.37;2.33;;;24.30;99.90;;;;;;4993736;28;20213;-68
2022/01/09 01:47:38;;;;;;;6.57;2.23;;;24.30;99.90;;;;;;4994051;28;20185;-70
2022/01/09 01:50:07;;;;;;;9.27;2.50;;;24.40;99.90;;;;;;4993549;28;20707;-66
2022/01/09 01:52:41;;;;;;;6.40;2.43;;;24.50;99.90;;;;;;4993750;28;20181;-68
2022/01/09 01:55:10;;;;;;;12.83;2.27;;;24.70;99.90;;;;;;4993508;28;20230;-70
2022/01/09 01:57:40;;;;;;;9.67;2.43;;;24.80;99.90;;;;;;4993976;28;20265;-69
2022/01/09 02:00:10;;;;;;;15.67;2.67;;;24.80;99.90;;;;;;4993549;28;20186;-69
2022/01/09 02:02:38;;;;;;;12.03;2.50;;;24.80;99.90;;;;;;4976131;28;20182;-69
2022/01/09 02:05:06;;;;;;;7.67;2.60;;;24.80;99.90;;;;;;4976382;28;20237;-66
2022/01/09 02:07:35;;;;;;;8.83;2.47;;;24.70;99.90;;;;;;4976141;28;20243;-66
2022/01/09 02:10:08;;;;;;;12.00;2.63;;;24.70;99.90;;;;;;4997027;28;20202;-67
2022/01/09 02:12:42;;;;;;;6.20;1.83;;;24.70;99.90;;;;;;4997264;28;20270;-69
2022/01/09 02:15:33;;;;;;;11.57;2.67;;;24.70;99.90;;;;;;4996675;28;20267;-67
2022/01/09 02:18:09;;;;;;;9.67;2.47;;;24.80;99.90;;;;;;4979815;28;20186;-70
2022/01/09 02:20:38;;;;;;;11.10;2.47;;;24.80;99.90;;;;;;4997641;28;20248;-67
2022/01/09 02:23:07;;;;;;;6.33;2.30;;;24.90;99.90;;;;;;4996926;28;20193;-67
2022/01/09 02:25:36;;;;;;;6.93;2.73;;;24.80;99.90;;;;;;4997147;28;20186;-67
2022/01/09 02:28:08;;;;;;;6.10;2.10;;;24.80;99.90;;;;;;4997210;28;20269;-69
2022/01/09 02:30:36;;;;;;;6.20;2.07;;;24.90;99.90;;;;;;4996876;28;20199;-69
2022/01/09 02:33:05;;;;;;;9.63;2.40;;;24.90;99.90;;;;;;4996954;28;20189;-67
2022/01/09 02:35:33;;;;;;;7.23;2.07;;;25.00;99.90;;;;;;4978884;28;20256;-67
2022/01/09 02:38:01;;;;;;;8.83;2.70;;;25.20;99.90;;;;;;4979499;28;20197;-68
2022/01/09 02:40:29;;;;;;;10.77;2.40;;;25.30;99.90;;;;;;4996834;28;20182;-69
2022/01/09 02:42:58;;;;;;;8.60;2.27;;;25.40;99.90;;;;;;4996435;28;20269;-69
2022/01/09 02:45:27;;;;;;;8.47;1.90;;;25.40;99.90;;;;;;4996408;28;20194;-68
2022/01/09 02:47:57;;;;;;;5.93;2.23;;;25.30;99.90;;;;;;4996819;28;20266;-68
2022/01/09 02:53:00;;;;;;;10.83;2.40;;;25.70;99.90;;;;;;4996273;28;20206;-71
2022/01/09 02:55:30;;;;;;;11.37;2.33;;;26.00;99.90;;;;;;4978644;28;20197;-70
2022/01/09 02:58:01;;;;;;;7.97;2.20;;;26.30;99.90;;;;;;4995195;28;20183;-70
2022/01/09 03:00:32;;;;;;;16.00;2.83;;;26.30;99.90;;;;;;4995738;28;20174;-70
2022/01/09 03:03:00;;;;;;;9.10;2.60;;;26.30;99.90;;;;;;4995710;28;20217;-69
2022/01/09 03:05:29;;;;;;;6.63;2.20;;;26.20;99.90;;;;;;4995882;28;20179;-70
2022/01/09 03:07:58;;;;;;;7.57;2.50;;;26.10;99.90;;;;;;4996346;28;20170;-72
2022/01/09 03:10:26;;;;;;;8.47;3.03;;;26.10;99.90;;;;;;4996581;28;20660;-71
2022/01/09 03:12:56;;;;;;;11.83;2.73;;;26.10;99.90;;;;;;4995485;28;20246;-72
2022/01/09 03:16:06;;;;;;;7.63;2.30;;;26.10;99.90;;;;;;4995914;28;20586;-71
2022/01/09 03:18:33;;;;;;;9.00;2.30;;;26.00;99.90;;;;;;4996388;28;20698;-71
2022/01/09 03:21:01;;;;;;;7.47;2.30;;;26.10;99.90;;;;;;4995589;28;20233;-70
2022/01/09 03:23:29;;;;;;;11.10;3.10;;;25.90;99.90;;;;;;4978779;28;20186;-70
2022/01/09 03:25:56;;;;;;;7.83;2.73;;;25.70;99.90;;;;;;4996065;28;20225;-70
2022/01/09 03:28:24;;;;;;;9.73;2.30;;;25.40;99.90;;;;;;4996116;28;20179;-72
2022/01/09 03:30:52;;;;;;;13.10;3.23;;;25.10;99.90;;;;;;4995751;28;20197;-71
2022/01/09 03:33:19;;;;;;;8.97;2.50;;;25.30;99.90;;;;;;4995714;28;20206;-70
2022/01/09 03:35:47;;;;;;;9.90;2.30;;;25.40;99.90;;;;;;4995633;28;20265;-69
2022/01/09 03:38:15;;;;;;;13.03;2.30;;;25.50;99.90;;;;;;4995822;28;20625;-72
2022/01/09 03:40:43;;;;;;;6.80;2.40;;;25.40;99.90;;;;;;4999437;28;20183;-72
2022/01/09 03:43:12;;;;;;;8.53;2.30;;;25.30;99.90;;;;;;4997048;28;20182;-68
2022/01/09 03:45:40;;;;;;;7.80;2.37;;;25.10;99.90;;;;;;4979288;28;20193;-71
2022/01/09 03:48:08;;;;;;;10.20;2.50;;;25.10;99.90;;;;;;4995618;28;20182;-67
2022/01/09 03:50:36;;;;;;;8.93;2.53;;;25.20;99.90;;;;;;4978273;28;20191;-68
2022/01/09 03:53:04;;;;;;;9.63;2.50;;;25.10;99.90;;;;;;4995262;28;20269;-70
2022/01/09 03:55:32;;;;;;;9.43;2.40;;;25.20;99.90;;;;;;4995677;28;20232;-68
2022/01/09 03:58:00;;;;;;;6.80;2.13;;;25.20;99.90;;;;;;4995137;28;20188;-69
2022/01/09 04:00:27;;;;;;;8.30;2.77;;;25.50;99.90;;;;;;4995580;28;20183;-70
2022/01/09 04:02:55;;;;;;;9.90;2.30;;;25.70;99.90;;;;;;4995317;28;20542;-70
2022/01/09 04:05:24;;;;;;;8.30;2.00;;;25.80;99.90;;;;;;4977782;28;20194;-69
2022/01/09 04:07:52;;;;;;;9.57;3.03;;;26.10;99.90;;;;;;4994652;28;20611;-70
2022/01/09 04:10:22;;;;;;;5.13;1.67;;;26.10;99.90;;;;;;4994482;28;20195;-69
2022/01/09 04:12:58;;;;;;;10.50;2.80;;;26.00;99.90;;;;;;4992371;28;20203;-67
2022/01/09 04:15:26;;;;;;;7.20;2.10;;;25.90;99.90;;;;;;4994448;28;20225;-70
2022/01/09 04:17:57;;;;;;;9.40;2.47;;;25.80;99.90;;;;;;4994748;28;20648;-70
2022/01/09 04:20:28;;;;;;;6.13;2.07;;;25.70;99.90;;;;;;4994588;28;20609;-70
2022/01/09 04:22:57;;;;;;;12.17;2.70;;;25.70;99.90;;;;;;4977462;28;20190;-69
2022/01/09 04:25:25;;;;;;;6.20;2.13;;;25.60;99.90;;;;;;4994745;28;20185;-68
2022/01/09 04:27:54;;;;;;;8.17;2.37;;;25.40;99.90;;;;;;4994784;28;20516;-71
2022/01/09 04:30:21;;;;;;;9.03;2.30;;;25.30;99.90;;;;;;4961671;28;20189;-71
2022/01/09 04:32:50;;;;;;;7.23;2.10;;;25.40;99.90;;;;;;4994701;28;20202;-72
2022/01/09 04:35:17;;;;;;;9.03;2.47;;;25.40;99.90;;;;;;4994588;28;20698;-67
2022/01/09 04:37:47;;;;;;;9.23;2.80;;;25.50;99.90;;;;;;4976897;28;20226;-70
2022/01/09 04:40:18;;;;;;;7.87;2.50;;;25.50;99.90;;;;;;4994076;28;20187;-71
2022/01/09 04:42:50;;;;;;;9.57;2.63;;;25.50;99.90;;;;;;4994539;28;20182;-72
2022/01/09 04:45:20;;;;;;;8.07;1.90;;;25.40;99.90;;;;;;4994703;28;20221;-71
2022/01/09 04:47:50;;;;;;;7.33;2.30;;;25.40;99.90;;;;;;4994468;28;20178;-71
2022/01/09 04:50:24;;;;;;;9.33;2.30;;;25.30;99.90;;;;;;4993910;28;20644;-72
2022/01/09 04:52:59;;;;;;;11.87;2.40;;;25.20;99.90;;;;;;4994283;28;20202;-71
2022/01/09 04:55:28;;;;;;;6.37;1.90;;;25.20;99.90;;;;;;4994264;28;20228;-72
2022/01/09 04:57:56;;;;;;;6.50;2.33;;;25.20;99.90;;;;;;4994452;28;20187;-70
2022/01/09 05:00:25;;;;;;;4.83;2.17;;;25.10;99.90;;;;;;4976417;28;20189;-70
2022/01/09 05:02:53;;;;;;;5.70;2.20;;;25.00;99.90;;;;;;4976977;28;20187;-71
2022/01/09 05:05:21;;;;;;;7.50;2.20;;;25.00;99.90;;;;;;4994337;28;20175;-69
2022/01/09 05:07:49;;;;;;;7.63;2.27;;;25.10;99.90;;;;;;4993890;28;20269;-70
2022/01/09 05:10:17;;;;;;;12.43;2.40;;;25.10;99.90;;;;;;4993836;28;20189;-71
2022/01/09 05:12:45;;;;;;;7.60;2.00;;;25.10;99.90;;;;;;4976513;28;20197;-71
2022/01/09 05:15:15;;;;;;;6.83;2.20;;;25.00;99.90;;;;;;4994129;28;20253;-71
2022/01/09 05:17:43;;;;;;;7.20;2.33;;;24.90;99.90;;;;;;4993926;28;20171;-70
2022/01/09 05:20:11;;;;;;;7.43;3.07;;;24.90;99.90;;;;;;4993617;28;20193;-71
2022/01/09 05:22:39;;;;;;;11.83;4.10;;;24.80;99.90;;;;;;4976495;28;20537;-70
2022/01/09 05:25:07;;;;;;;5.90;3.00;;;24.90;99.90;;;;;;4993924;28;20175;-70
2022/01/09 05:27:36;;;;;;;8.70;3.00;;;24.80;99.90;;;;;;4994070;28;20232;-71
2022/01/09 05:30:06;;;;;;;11.33;2.80;;;24.90;99.90;;;;;;4993769;28;20640;-70
2022/01/09 05:32:33;;;;;;;9.07;3.00;;;24.90;99.90;;;;;;4993830;28;20193;-69
2022/01/09 05:35:02;;;;;;;10.17;2.80;;;24.80;99.90;;;;;;4976051;28;20218;-69
2022/01/09 05:37:29;;;;;;;13.93;3.37;;;24.90;99.90;;;;;;4993418;28;20253;-71
2022/01/09 05:39:57;;;;;;;15.43;3.43;;;24.80;99.90;;;;;;4993489;28;20527;-71
2022/01/09 05:42:25;;;;;;;8.07;2.63;;;24.80;99.90;;;;;;4993774;28;20261;-70
2022/01/09 05:44:54;;;;;;;9.47;2.83;;;24.80;99.90;;;;;;4996757;28;20715;-71
2022/01/09 05:47:22;;;;;;;13.40;3.73;;;24.90;99.90;;;;;;4997918;28;20186;-70
2022/01/09 05:49:50;;;;;;;11.63;3.07;;;24.80;99.90;;;;;;4980002;28;20269;-71
2022/01/09 05:52:17;;;;;;;10.57;3.10;;;24.50;99.90;;;;;;4997531;28;20277;-69
2022/01/09 05:54:45;;;;;;;9.23;3.00;;;24.40;99.90;;;;;;4979320;28;20224;-70
2022/01/09 05:57:13;;;;;;;13.27;3.53;;;24.40;99.90;;;;;;4997477;28;20185;-70
2022/01/09 05:59:41;;;;;;;9.20;3.03;;;24.30;99.90;;;;;;4997577;28;20186;-69
2022/01/09 06:02:09;;;;;;;11.90;3.00;;;24.30;99.90;;;;;;4980063;28;20301;-70
2022/01/09 06:04:37;;;;;;;11.53;3.60;;;24.30;99.90;;;;;;4997672;28;20174;-69
2022/01/09 06:07:04;;;;;;;12.77;3.63;;;24.40;99.90;;;;;;4997591;28;20539;-70
2022/01/09 06:09:32;;;;;;;12.13;3.63;;;24.50;99.90;;;;;;4997302;28;20190;-69
2022/01/09 06:12:00;;;;;;;10.03;3.00;;;24.60;99.90;;;;;;4980168;28;20186;-70
2022/01/09 06:14:28;;;;;;;12.63;3.53;;;24.70;99.90;;;;;;4997370;28;20224;-70
2022/01/09 06:16:55;;;;;;;10.53;3.03;;;24.80;99.90;;;;;;4997140;28;20183;-70
2022/01/09 06:19:23;;;;;;;10.93;2.97;;;24.60;99.90;;;;;;4997032;28;20183;-69
2022/01/09 06:21:51;;;;;;;14.53;3.57;;;24.50;99.90;;;;;;4979206;28;20221;-70
2022/01/09 06:24:19;;;;;;;15.27;3.67;;;24.50;99.90;;;;;;4996666;28;20201;-69
2022/01/09 06:26:46;;;;;;;10.60;3.27;;;24.60;99.90;;;;;;4996904;28;20174;-70
2022/01/09 06:29:15;;;;;;;12.80;3.80;;;24.80;99.90;;;;;;4996649;28;20183;-71
2022/01/09 06:31:44;;;;;;;11.80;2.77;;;24.90;99.90;;;;;;4997303;28;20524;-70
2022/01/09 06:34:13;;;;;;;10.53;3.33;;;25.00;99.90;;;;;;4996921;28;20221;-70
2022/01/09 06:36:42;;;;;;;9.93;3.53;;;25.20;99.90;;;;;;4996466;28;20245;-69
2022/01/09 06:39:09;;;;;;;12.77;3.30;;;25.40;99.90;;;;;;4996794;28;20179;-70
2022/01/09 06:41:37;;;;;;;12.10;3.17;;;25.70;99.90;;;;;;4979127;28;20652;-71
2022/01/09 06:44:05;;;;;;;11.87;2.73;;;25.70;99.90;;;;;;4996605;28;20562;-70
2022/01/09 06:46:33;;;;;;;12.40;3.80;;;25.50;99.90;;;;;;4996616;28;20234;-70
2022/01/09 06:49:02;;;;;;;11.23;3.23;;;25.50;99.90;;;;;;4996703;28;20179;-69
2022/01/09 06:51:33;;;;;;;10.70;2.77;;;25.50;99.90;;;;;;4996278;28;20190;-70
2022/01/09 06:54:00;;;;;;;9.20;2.63;;;25.40;99.90;;;;;;4979042;28;20218;-70
2022/01/09 06:56:28;;;;;;;10.90;2.50;;;25.20;99.90;;;;;;4995292;28;20591;-70
2022/01/09 06:58:56;;;;;;;11.03;2.17;;;25.20;99.90;;;;;;4996272;28;20187;-70
2022/01/09 07:01:24;;;;;;;13.83;2.50;;;25.20;99.90;;;;;;4996428;28;20643;-70
2022/01/09 07:03:51;;;;;;;8.57;2.63;;;25.20;99.90;;;;;;4996071;28;20187;-70
2022/01/09 07:06:19;;;;;;;14.27;2.30;;;25.10;99.90;;;;;;4978836;28;20190;-71
2022/01/09 07:08:47;;;;;;;12.00;2.63;;;25.00;99.90;;;;;;4996321;28;20632;-69
2022/01/09 07:11:15;;;;;;;8.50;2.53;;;25.00;99.90;;;;;;4978309;28;20190;-70
2022/01/09 07:13:43;;;;;;;9.33;2.10;;;24.80;99.90;;;;;;4978358;28;20305;-69
2022/01/09 07:16:11;;;;;;;7.70;2.00;;;24.70;99.90;;;;;;4996352;28;20264;-71
2022/01/09 07:18:39;;;;;;;9.30;1.80;;;24.70;99.90;;;;;;4995704;28;20194;-70
2022/01/09 07:21:06;;;;;;;6.20;2.00;;;24.70;99.90;;;;;;4996075;28;20237;-70
2022/01/09 07:23:34;;;;;;;9.30;2.67;;;24.70;99.90;;;;;;4995830;28;20190;-70
2022/01/09 07:26:02;;;;;;;9.10;2.27;;;24.70;99.90;;;;;;4996346;28;20175;-68
2022/01/09 07:28:30;;;;;;;7.97;2.10;;;24.80;99.90;;;;;;4996186;28;20520;-69
2022/01/09 07:30:58;;;;;;;5.07;2.07;;;24.80;99.90;;;;;;4996108;28;20178;-70
2022/01/09 07:33:26;;;;;;;7.53;2.23;;;24.90;99.90;;;;;;4995272;28;20306;-71
2022/01/09 07:35:53;;;;;;;12.57;2.47;;;25.00;99.90;;;;;;4978738;28;20292;-70
2022/01/09 07:38:21;;;;;;;12.37;3.13;;;25.00;99.90;;;;;;4995795;28;20632;-70
2022/01/09 07:40:50;;;;;;;8.47;2.37;;;25.00;99.90;;;;;;4995903;28;20182;-69
2022/01/09 07:43:18;;;;;;;11.07;2.43;;;24.90;99.90;;;;;;4994882;28;20194;-69
2022/01/09 07:45:45;;;;;;;9.07;2.33;;;24.80;99.90;;;;;;4995587;28;20186;-70
2022/01/09 07:48:13;;;;;;;5.70;2.07;;;24.80;99.90;;;;;;4978393;28;20249;-70
2022/01/09 07:50:41;;;;;;;9.57;2.40;;;24.70;99.90;;;;;;4996316;28;20190;-70
2022/01/09 07:53:10;;;;;;;7.37;2.00;;;24.70;99.90;;;;;;4995729;28;20214;-72
2022/01/09 07:55:38;;;;;;;9.23;2.40;;;24.60;99.90;;;;;;4978718;28;20185;-71
2022/01/09 07:58:06;;;;;;;7.60;2.43;;;24.60;99.90;;;;;;4995973;28;20190;-71
2022/01/09 08:00:33;;;;;;;7.77;2.00;;;24.50;99.90;;;;;;4996066;28;20210;-71
2022/01/09 08:03:01;;;;;;;3.97;1.87;;;24.50;99.90;;;;;;4995595;28;20240;-69
2022/01/09 08:05:29;;;;;;;12.27;2.93;;;24.50;99.90;;;;;;4995596;28;20310;-70
2022/01/09 08:07:57;;;;;;;3.80;1.77;;;24.50;99.90;;;;;;4977655;28;20213;-71
2022/01/09 08:10:25;;;;;;;7.93;2.37;;;24.40;99.90;;;;;;4995090;28;20183;-68
2022/01/09 08:12:53;;;;;;;5.13;2.03;;;24.40;99.90;;;;;;4995052;28;20280;-71
2022/01/09 08:15:21;;;;;;;6.40;2.20;;;24.40;99.90;;;;;;4995134;28;20218;-68
2022/01/09 08:17:50;;;;;;;6.13;2.00;;;24.40;99.90;;;;;;4977794;28;20182;-68
2022/01/09 08:20:18;;;;;;;8.83;2.83;;;24.30;99.90;;;;;;4994947;28;20622;-67
2022/01/09 08:22:46;;;;;;;8.80;2.13;;;24.30;99.90;;;;;;4977633;28;20191;-71
2022/01/09 08:25:17;;;;;;;9.30;1.80;;;24.20;99.90;;;;;;4961231;28;20237;-72
2022/01/09 08:27:49;;;;;;;6.27;2.13;;;24.10;99.90;;;;;;4994992;28;20651;-70
2022/01/09 08:30:19;;;;;;;8.33;1.93;;;24.10;99.90;;;;;;4995383;28;20265;-71
2022/01/09 08:32:48;;;;;;;8.90;2.20;;;24.20;99.90;;;;;;4994977;28;20194;-70
2022/01/09 08:35:18;;;;;;;6.27;2.00;;;24.10;99.90;;;;;;4995159;28;20578;-71
2022/01/09 08:37:46;;;;;;;8.20;2.27;;;24.10;99.90;;;;;;4994192;28;20305;-70
2022/01/09 08:40:22;;;;;;;11.23;2.10;;;24.10;99.90;;;;;;4994581;28;20656;-70
2022/01/09 08:42:53;;;;;;;10.47;1.90;;;24.10;99.90;;;;;;4977160;28;20739;-71
2022/01/09 08:45:22;;;;;;;11.27;1.80;;;24.10;99.90;;;;;;4995050;28;20221;-70
2022/01/09 08:47:50;;;;;;;8.80;2.33;;;24.10;99.90;;;;;;4977466;28;20182;-71
2022/01/09 08:50:20;;;;;;;12.67;2.17;;;24.10;99.90;;;;;;4977044;28;20190;-71
2022/01/09 08:52:48;;;;;;;7.27;2.63;;;24.00;99.90;;;;;;4976791;28;20198;-72
2022/01/09 08:55:16;;;;;;;8.27;2.60;;;24.00;99.90;;;;;;4993985;28;20253;-68
2022/01/09 08:57:44;;;;;;;10.97;2.70;;;23.90;99.90;;;;;;4976097;28;20190;-70
2022/01/09 09:00:13;;;;;;;8.20;2.40;;;23.90;99.90;;;;;;4994369;28;20205;-68
2022/01/09 09:02:41;;;;;;;6.97;2.10;;;23.90;99.90;;;;;;4994369;28;20220;-70
2022/01/09 09:05:09;;;;;;;20.20;3.03;;;23.90;99.90;;;;;;4994425;28;20189;-71
2022/01/09 09:07:37;;;;;;;10.43;2.77;;;23.90;99.90;;;;;;4994453;28;20192;-71
2022/01/09 09:10:05;;;;;;;11.70;2.03;;;23.90;99.90;;;;;;4977276;28;20224;-69
2022/01/09 09:12:34;;;;;;;11.47;2.50;;;23.90;99.90;;;;;;4994349;28;20199;-70
2022/01/09 09:15:04;;;;;;;12.40;2.93;;;23.90;99.90;;;;;;4976437;28;20236;-71
2022/01/09 09:17:32;;;;;;;15.60;2.20;;;23.90;99.90;;;;;;4974506;28;20277;-71
2022/01/09 09:20:00;;;;;;;14.10;3.03;;;23.90;99.90;;;;;;4974777;28;20187;-68
2022/01/09 09:22:28;;;;;;;9.37;2.50;;;23.90;99.90;;;;;;4957355;28;20186;-70
2022/01/09 09:24:56;;;;;;;12.53;2.33;;;23.80;99.90;;;;;;4976604;28;20202;-70
2022/01/09 09:27:30;;;;;;;10.47;2.20;;;23.90;99.90;;;;;;4976866;28;20182;-69
2022/01/09 09:30:02;;;;;;;10.20;2.43;;;23.80;99.90;;;;;;4994536;28;20192;-70
2022/01/09 09:32:31;;;;;;;10.27;2.50;;;23.80;99.90;;;;;;4993834;28;20190;-70
2022/01/09 09:34:59;;;;;;;9.83;2.63;;;23.60;99.90;;;;;;4993811;28;20312;-68
2022/01/09 09:37:28;;;;;;;11.83;3.60;;;23.50;99.90;;;;;;4993731;28;20221;-69
2022/01/09 09:39:55;;;;;;;6.20;2.40;;;23.50;99.90;;;;;;4993877;28;20544;-69
2022/01/09 09:42:23;;;;;;;10.47;3.10;;;23.40;99.90;;;;;;4994025;28;20182;-70
2022/01/09 09:44:51;;;;;;;15.53;2.70;;;23.40;99.90;;;;;;4985313;28;20694;-68
2022/01/09 09:47:21;;;;;;;10.33;3.20;;;23.30;99.90;;;;;;4994147;28;20182;-67
2022/01/09 09:49:49;;;;;;;9.93;3.27;;;23.30;99.90;;;;;;4961030;28;20185;-70
2022/01/09 09:52:19;;;;;;;12.43;3.50;;;23.20;99.90;;;;;;4994358;28;20182;-68
2022/01/09 09:54:48;;;;;;;8.83;2.70;;;23.20;99.90;;;;;;4993666;28;20318;-71
2022/01/09 09:57:16;;;;;;;14.00;3.00;;;23.20;99.90;;;;;;4993718;28;20189;-70
2022/01/09 09:59:47;;;;;;;10.27;2.90;;;23.20;99.90;;;;;;4993722;28;20216;-70
2022/01/09 10:02:18;;;;;;;10.00;2.87;;;23.20;99.90;;;;;;4993707;28;20190;-69
2022/01/09 10:05:04;;;;;;;7.73;2.53;;;23.10;99.90;;;;;;4993395;28;20615;-70
2022/01/09 10:07:32;;;;;;;10.60;3.03;;;23.10;99.90;;;;;;4986862;28;20191;-68
2022/01/09 10:10:05;;;;;;;11.97;3.90;;;23.10;99.90;;;;;;4993321;28;20182;-68
2022/01/09 10:12:33;;;;;;;16.10;3.90;;;23.00;99.90;;;;;;4993022;28;20189;-71
2022/01/09 10:15:05;;;;;;;11.93;2.97;;;23.00;99.90;;;;;;4993004;28;20229;-70
2022/01/09 10:17:33;;;;;;;8.70;3.30;;;23.00;99.90;;;;;;4993589;28;20249;-70
2022/01/09 10:20:04;;;;;;;12.53;3.53;;;23.00;99.90;;;;;;4992764;28;20244;-69
2022/01/09 10:22:36;;;;;;;17.30;9.97;;;23.00;99.90;;;;;;4993469;28;20216;-71
2022/01/09 10:25:21;;;;;;;25.30;13.37;;;23.00;99.90;;;;;;4992740;28;20190;-68
2022/01/09 10:27:51;;;;;;;13.10;6.53;;;23.00;99.90;;;;;;4974355;28;20179;-70
2022/01/09 10:30:23;;;;;;;23.07;9.43;;;23.00;99.90;;;;;;4978246;28;20273;-71
2022/01/09 10:32:56;;;;;;;21.93;9.50;;;23.00;99.90;;;;;;4979970;28;20181;-68
2022/01/09 10:35:24;;;;;;;15.20;6.87;;;23.00;99.90;;;;;;4996715;28;20219;-68
2022/01/09 10:38:04;;;;;;;16.20;5.47;;;23.10;99.90;;;;;;4996509;28;20280;-68
2022/01/09 10:40:36;;;;;;;12.10;3.97;;;23.00;99.90;;;;;;4997048;28;20650;-68
2022/01/09 10:43:17;;;;;;;12.70;4.20;;;23.10;99.90;;;;;;4997012;28;20185;-69
2022/01/09 10:45:49;;;;;;;10.87;4.87;;;23.00;99.90;;;;;;4996994;28;20185;-70
2022/01/09 10:48:21;;;;;;;15.03;4.93;;;23.10;99.90;;;;;;4996871;28;20204;-70
2022/01/09 10:50:52;;;;;;;10.90;4.40;;;23.00;99.90;;;;;;4996940;28;20185;-69
2022/01/09 10:53:24;;;;;;;11.90;4.73;;;23.00;99.90;;;;;;4996416;28;20184;-71
2022/01/09 10:56:10;;;;;;;13.17;4.97;;;23.10;99.90;;;;;;4996345;28;20196;-71
2022/01/09 10:58:57;;;;;;;14.50;5.00;;;23.00;99.90;;;;;;4996585;28;20272;-71
2022/01/09 11:01:35;;;;;;;13.50;5.73;;;23.00;99.90;;;;;;4996720;28;20199;-72
2022/01/09 11:04:06;;;;;;;12.87;3.57;;;23.00;99.90;;;;;;4996360;28;20192;-70
2022/01/09 11:06:36;;;;;;;11.53;4.03;;;23.00;99.90;;;;;;4996243;28;20218;-71
2022/01/09 11:09:05;;;;;;;10.00;2.97;;;23.00;99.90;;;;;;4996402;28;20188;-72
2022/01/09 11:11:39;;;;;;;12.00;3.33;;;23.00;99.90;;;;;;4996484;28;20182;-71
2022/01/09 11:14:13;;;;;;;8.20;3.20;;;23.00;99.90;;;;;;4996115;28;20587;-71
2022/01/09 11:16:51;;;;;;;11.27;3.40;;;23.00;99.90;;;;;;4995831;28;20197;-72
2022/01/09 11:19:21;;;;;;;9.80;2.90;;;22.90;99.90;;;;;;4996257;28;20185;-71
2022/01/09 11:21:59;;;;;;;9.30;2.90;;;23.00;99.90;;;;;;4995997;28;20185;-71
2022/01/09 11:24:39;;;;;;;7.80;2.90;;;22.90;99.90;;;;;;4996278;28;20182;-70
2022/01/09 11:27:20;;;;;;;14.93;3.30;;;22.90;99.90;;;;;;4977012;28;20224;-70
2022/01/09 11:30:09;;;;;;;12.27;3.10;;;22.80;99.90;;;;;;4977097;28;20174;-72
2022/01/09 11:32:43;;;;;;;10.80;3.53;;;22.80;99.90;;;;;;4981961;28;20218;-73
2022/01/09 11:35:15;;;;;;;6.50;2.93;;;22.80;99.90;;;;;;4995670;28;20213;-70
2022/01/09 11:38:04;;;;;;;17.83;3.40;;;22.80;99.90;;;;;;4995807;28;20300;-72
2022/01/09 11:40:33;;;;;;;11.40;3.13;;;22.80;99.90;;;;;;4995449;28;20189;-71
2022/01/09 11:43:07;;;;;;;9.23;3.50;;;22.70;99.90;;;;;;4995323;28;20174;-72
2022/01/09 11:45:56;;;;;;;7.40;3.10;;;22.80;99.90;;;;;;4995377;28;20189;-71
2022/01/09 11:49:04;;;;;;;11.53;3.60;;;22.80;99.90;;;;;;4995747;28;20215;-73
2022/01/09 11:51:34;;;;;;;11.77;3.47;;;22.80;99.90;;;;;;4935756;29;20258;-71
2022/01/09 11:54:11;;;;;;;14.97;4.03;;;22.80;99.90;;;;;;4935568;29;20241;-73
2022/01/09 11:56:57;;;;;;;7.23;3.27;;;22.80;99.90;;;;;;4970922;28;20206;-71
2022/01/09 11:59:35;;;;;;;9.60;3.33;;;22.80;99.90;;;;;;4995466;28;20223;-72
2022/01/09 12:02:29;;;;;;;8.40;3.10;;;22.90;99.90;;;;;;4995176;28;20673;-71
2022/01/09 12:05:08;;;;;;;18.63;3.43;;;22.90;99.90;;;;;;4995085;28;20228;-71
2022/01/09 12:07:35;;;;;;;13.03;4.10;;;22.90;99.90;;;;;;4995086;28;20193;-72
2022/01/09 12:10:23;;;;;;;15.40;3.47;;;22.90;99.90;;;;;;4995322;28;20185;-71
2022/01/09 12:12:51;;;;;;;10.40;3.33;;;22.80;99.90;;;;;;4994810;28;20193;-71
2022/01/09 12:15:48;;;;;;;9.47;3.30;;;22.80;99.90;;;;;;4994807;28;20232;-71
2022/01/09 12:18:44;;;;;;;8.07;3.60;;;22.90;99.90;;;;;;4979193;28;20197;-71
2022/01/09 12:21:39;;;;;;;7.60;3.30;;;22.80;99.90;;;;;;4995367;28;20325;-72
2022/01/09 12:24:38;;;;;;;10.67;4.07;;;22.90;99.90;;;;;;4994726;28;20184;-71
2022/01/09 12:27:38;;;;;;;13.07;3.70;;;22.90;99.90;;;;;;4995117;28;20191;-71
2022/01/09 12:30:07;;;;;;;15.07;4.20;;;22.80;99.90;;;;;;4994998;28;20184;-72
2022/01/09 12:32:44;;;;;;;15.23;5.43;;;22.80;99.90;;;;;;4994651;28;20193;-70
2022/01/09 12:35:16;;;;;;;8.73;4.47;;;22.80;99.90;;;;;;4994129;28;20297;-70
2022/01/09 12:37:49;;;;;;;11.43;3.80;;;22.80;99.90;;;;;;4994313;28;20271;-70
2022/01/09 12:40:23;;;;;;;19.83;3.83;;;22.80;99.90;;;;;;4994735;28;20172;-70
2022/01/09 12:42:53;;;;;;;12.60;4.73;;;22.80;99.90;;;;;;4977608;28;20180;-70
2022/01/09 12:45:28;;;;;;;16.57;4.83;;;22.80;99.90;;;;;;4994335;28;20186;-69
2022/01/09 12:47:57;;;;;;;14.43;5.63;;;22.80;99.90;;;;;;4994766;28;20179;-71
2022/01/09 12:50:33;;;;;;;17.77;4.50;;;22.80;99.90;;;;;;4994552;28;20178;-71
2022/01/09 12:53:20;;;;;;;10.33;3.50;;;22.80;99.90;;;;;;4993808;28;20694;-71
2022/01/09 12:55:55;;;;;;;13.10;3.37;;;22.80;99.90;;;;;;4975109;28;20191;-70
2022/01/09 12:58:34;;;;;;;10.53;3.23;;;22.80;99.90;;;;;;4975083;28;20181;-71
2022/01/09 13:01:06;;;;;;;10.20;3.27;;;22.80;99.90;;;;;;4975060;28;20190;-71
2022/01/09 13:03:34;;;;;;;8.50;3.40;;;22.80;99.90;;;;;;4977480;28;20601;-71